createdAt,value
2017-12-31T00:01:35.409Z,1.47
2017-12-31T00:04:04.643Z,1.13
2017-12-31T00:06:34.343Z,1.53
2017-12-31T00:09:04.430Z,2.27
2017-12-31T00:11:34.446Z,1.50
2017-12-31T00:14:03.677Z,1.83
2017-12-31T00:16:33.640Z,1.83
2017-12-31T00:19:02.859Z,1.37
2017-12-31T00:21:32.064Z,2.37
2017-12-31T00:24:01.919Z,2.60
2017-12-31T00:26:31.127Z,3.80
2017-12-31T00:29:00.344Z,4.13
2017-12-31T00:31:29.547Z,2.80
2017-12-31T00:34:00.609Z,2.03
2017-12-31T00:36:30.100Z,5.90
2017-12-31T00:38:59.323Z,1.67
2017-12-31T00:41:28.500Z,2.50
2017-12-31T00:43:57.716Z,1.67
2017-12-31T00:46:26.925Z,3.50
2017-12-31T00:48:56.107Z,2.20
2017-12-31T00:51:25.267Z,1.93
2017-12-31T00:53:55.165Z,2.77
2017-12-31T00:56:24.325Z,1.23
2017-12-31T00:58:53.511Z,2.40
2017-12-31T01:01:22.680Z,2.07
2017-12-31T01:03:53.208Z,3.57
2017-12-31T01:06:22.369Z,6.30
2017-12-31T01:08:53.185Z,4.20
2017-12-31T01:11:22.352Z,5.30
2017-12-31T01:13:51.535Z,3.33
2017-12-31T01:16:20.693Z,3.43
2017-12-31T01:18:49.881Z,4.80
2017-12-31T01:21:19.031Z,5.60
2017-12-31T01:23:48.220Z,7.53
2017-12-31T01:26:17.392Z,2.53
2017-12-31T01:28:46.588Z,5.40
2017-12-31T01:31:17.376Z,5.10
2017-12-31T01:33:46.558Z,6.53
2017-12-31T01:36:15.868Z,5.23
2017-12-31T01:38:45.061Z,13.10
2017-12-31T01:41:14.688Z,4.17
2017-12-31T01:43:43.875Z,9.57
2017-12-31T01:46:13.028Z,4.87
2017-12-31T01:48:47.924Z,6.03
2017-12-31T01:51:17.784Z,5.73
2017-12-31T01:53:48.607Z,12.37
2017-12-31T01:56:17.771Z,6.17
2017-12-31T01:58:46.988Z,8.70
2017-12-31T02:01:16.159Z,8.70
2017-12-31T02:03:45.361Z,7.30
2017-12-31T02:06:14.534Z,8.17
2017-12-31T02:08:45.203Z,8.03
2017-12-31T02:11:14.763Z,9.30
2017-12-31T02:13:43.929Z,5.47
2017-12-31T02:16:13.660Z,7.70
2017-12-31T02:18:42.819Z,9.23
2017-12-31T02:21:12.008Z,6.93
2017-12-31T02:23:41.166Z,6.03
2017-12-31T02:26:10.338Z,9.50
2017-12-31T02:28:39.519Z,8.17
2017-12-31T02:31:08.703Z,13.60
2017-12-31T02:33:37.908Z,11.13
2017-12-31T02:36:07.099Z,7.93
2017-12-31T02:38:36.306Z,7.80
2017-12-31T02:41:05.489Z,4.53
2017-12-31T02:43:35.615Z,7.10
2017-12-31T02:46:04.813Z,14.50
2017-12-31T02:48:34.016Z,5.97
2017-12-31T02:51:03.988Z,8.73
2017-12-31T02:53:33.145Z,4.53
2017-12-31T02:56:02.326Z,8.93
2017-12-31T02:58:32.249Z,8.33
2017-12-31T03:01:02.194Z,7.80
2017-12-31T03:03:32.108Z,5.20
2017-12-31T03:06:02.064Z,11.77
2017-12-31T03:08:31.398Z,12.10
2017-12-31T03:11:00.600Z,9.40
2017-12-31T03:13:29.772Z,5.93
2017-12-31T03:15:57.312Z,9.03
2017-12-31T03:18:24.824Z,7.17
2017-12-31T03:20:53.050Z,11.70
2017-12-31T03:23:20.559Z,7.03
2017-12-31T03:25:48.093Z,9.07
2017-12-31T03:28:15.617Z,5.70
2017-12-31T03:30:43.144Z,8.60
2017-12-31T03:33:10.660Z,7.53
2017-12-31T03:35:38.196Z,9.50
2017-12-31T03:38:05.747Z,9.90
2017-12-31T03:40:34.064Z,9.90
2017-12-31T03:43:01.596Z,6.20
2017-12-31T03:45:29.233Z,11.27
2017-12-31T03:47:56.776Z,3.50
2017-12-31T03:50:25.016Z,7.30
2017-12-31T03:52:52.582Z,7.77
2017-12-31T03:55:20.109Z,11.37
2017-12-31T03:57:47.648Z,8.03
2017-12-31T04:00:15.173Z,6.60
2017-12-31T04:02:42.718Z,4.20
2017-12-31T04:05:10.244Z,2.43
2017-12-31T04:07:38.551Z,3.10
2017-12-31T04:10:07.083Z,2.80
2017-12-31T04:12:35.375Z,4.73
2017-12-31T04:15:02.896Z,4.93
2017-12-31T04:17:32.466Z,4.13
2017-12-31T04:19:59.980Z,6.83
2017-12-31T04:22:27.914Z,5.07
2017-12-31T04:24:55.435Z,4.20
2017-12-31T04:27:24.356Z,2.60
2017-12-31T04:29:52.196Z,3.43
2017-12-31T04:32:19.726Z,5.40
2017-12-31T04:34:47.243Z,5.27
2017-12-31T04:37:14.764Z,2.50
2017-12-31T04:39:43.040Z,4.90
2017-12-31T04:42:10.588Z,4.20
2017-12-31T04:44:38.109Z,7.23
2017-12-31T04:47:05.673Z,3.33
2017-12-31T04:49:33.194Z,4.70
2017-12-31T04:52:01.206Z,4.37
2017-12-31T04:54:28.717Z,3.00
2017-12-31T04:56:56.469Z,4.70
2017-12-31T04:59:24.770Z,4.57
2017-12-31T05:01:52.300Z,4.00
2017-12-31T05:04:21.489Z,3.37
2017-12-31T05:06:49.014Z,5.53
2017-12-31T05:09:16.543Z,7.40
2017-12-31T05:11:44.191Z,3.87
2017-12-31T05:14:11.745Z,2.63
2017-12-31T05:16:39.877Z,10.93
2017-12-31T05:19:07.409Z,3.67
2017-12-31T05:21:34.920Z,4.67
2017-12-31T05:24:02.485Z,6.57
2017-12-31T05:26:30.934Z,4.07
2017-12-31T05:28:58.507Z,2.00
2017-12-31T05:31:26.044Z,2.93
2017-12-31T05:33:53.583Z,6.23
2017-12-31T05:36:21.108Z,3.23
2017-12-31T05:38:48.639Z,6.30
2017-12-31T05:41:16.146Z,5.20
2017-12-31T05:43:43.687Z,2.13
2017-12-31T05:46:11.211Z,1.17
2017-12-31T05:48:39.082Z,2.60
2017-12-31T05:51:07.149Z,2.63
2017-12-31T05:53:35.399Z,3.10
2017-12-31T05:56:02.910Z,2.90
2017-12-31T05:58:30.447Z,3.23
2017-12-31T06:00:57.961Z,7.20
2017-12-31T06:03:26.669Z,3.83
2017-12-31T06:05:54.189Z,3.97
2017-12-31T06:08:22.430Z,7.53
2017-12-31T06:10:50.760Z,4.67
2017-12-31T06:13:18.888Z,5.33
2017-12-31T06:15:47.720Z,5.67
2017-12-31T06:18:16.671Z,3.13
2017-12-31T06:20:44.200Z,4.53
2017-12-31T06:23:12.448Z,4.10
2017-12-31T06:25:39.981Z,3.80
2017-12-31T06:28:08.325Z,13.23
2017-12-31T06:30:35.852Z,1.67
2017-12-31T06:33:03.372Z,2.70
2017-12-31T06:35:31.830Z,4.33
2017-12-31T06:38:01.046Z,4.27
2017-12-31T06:40:28.637Z,2.60
2017-12-31T06:42:56.156Z,5.30
2017-12-31T06:45:23.691Z,4.93
2017-12-31T06:47:51.977Z,4.40
2017-12-31T06:50:19.505Z,5.90
2017-12-31T06:52:47.020Z,4.67
2017-12-31T06:55:14.559Z,4.33
2017-12-31T06:57:42.077Z,6.40
2017-12-31T07:00:13.377Z,3.90
2017-12-31T07:02:40.897Z,3.73
2017-12-31T07:05:10.983Z,5.20
2017-12-31T07:07:39.246Z,7.13
2017-12-31T07:10:06.787Z,5.90
2017-12-31T07:12:35.244Z,7.67
2017-12-31T07:15:03.539Z,5.30
2017-12-31T07:17:31.816Z,4.43
2017-12-31T07:19:59.347Z,3.77
2017-12-31T07:22:27.691Z,4.90
2017-12-31T07:24:56.133Z,5.17
2017-12-31T07:27:23.661Z,11.37
2017-12-31T07:29:52.954Z,3.77
2017-12-31T07:32:21.237Z,1.63
2017-12-31T07:34:50.493Z,4.67
2017-12-31T07:37:18.413Z,3.80
2017-12-31T07:39:46.725Z,2.67
2017-12-31T07:42:15.179Z,5.07
2017-12-31T07:44:43.520Z,4.47
2017-12-31T07:47:11.816Z,5.10
2017-12-31T07:49:39.959Z,3.80
2017-12-31T07:52:08.785Z,4.60
2017-12-31T07:54:36.297Z,3.60
2017-12-31T07:57:04.793Z,4.20
2017-12-31T07:59:32.395Z,2.63
2017-12-31T08:02:00.359Z,3.83
2017-12-31T08:04:29.677Z,4.03
2017-12-31T08:06:57.212Z,9.20
2017-12-31T08:09:26.481Z,6.53
2017-12-31T08:11:56.084Z,6.33
2017-12-31T08:14:23.593Z,5.83
2017-12-31T08:16:51.201Z,5.83
2017-12-31T08:19:18.722Z,2.10
2017-12-31T08:21:47.169Z,4.37
2017-12-31T08:24:14.681Z,1.93
2017-12-31T08:26:45.278Z,3.30
2017-12-31T08:29:15.367Z,2.40
2017-12-31T08:31:43.733Z,4.20
2017-12-31T08:34:11.253Z,4.17
2017-12-31T08:36:39.552Z,2.90
2017-12-31T08:39:08.604Z,3.10
2017-12-31T08:41:37.060Z,5.83
2017-12-31T08:44:06.081Z,3.90
2017-12-31T08:46:37.888Z,1.87
2017-12-31T08:49:05.436Z,1.90
2017-12-31T08:51:32.978Z,3.10
2017-12-31T08:54:00.495Z,3.10
2017-12-31T08:56:28.429Z,4.53
2017-12-31T08:58:55.952Z,4.03
2017-12-31T09:01:24.083Z,2.27
2017-12-31T09:03:51.615Z,3.53
2017-12-31T09:06:19.144Z,2.87
2017-12-31T09:08:46.676Z,5.57
2017-12-31T09:11:15.089Z,6.10
2017-12-31T09:13:42.626Z,10.40
2017-12-31T09:16:11.342Z,2.87
2017-12-31T09:18:39.101Z,3.63
2017-12-31T09:21:06.618Z,4.13
2017-12-31T09:23:34.157Z,4.10
2017-12-31T09:26:02.625Z,4.50
2017-12-31T09:28:31.729Z,3.40
2017-12-31T09:31:00.021Z,2.13
2017-12-31T09:33:28.960Z,3.60
2017-12-31T09:35:56.821Z,5.13
2017-12-31T09:38:24.373Z,3.00
2017-12-31T09:40:51.885Z,2.90
2017-12-31T09:43:19.447Z,5.67
2017-12-31T09:45:47.732Z,4.27
2017-12-31T09:48:16.876Z,9.03
2017-12-31T09:50:44.424Z,8.40
2017-12-31T09:53:13.396Z,4.60
2017-12-31T09:55:41.268Z,8.83
2017-12-31T09:58:09.928Z,4.17
2017-12-31T10:00:37.536Z,10.93
2017-12-31T10:03:06.060Z,4.33
2017-12-31T10:05:33.596Z,12.27
2017-12-31T10:08:01.220Z,6.03
2017-12-31T10:10:29.640Z,2.60
2017-12-31T10:12:57.244Z,4.90
2017-12-31T10:15:25.456Z,5.27
2017-12-31T10:17:54.049Z,4.27
2017-12-31T10:20:21.560Z,3.00
2017-12-31T10:22:50.466Z,7.50
2017-12-31T10:25:17.996Z,5.60
2017-12-31T10:27:47.808Z,4.67
2017-12-31T10:30:16.189Z,3.80
2017-12-31T10:32:47.416Z,3.90
2017-12-31T10:35:17.390Z,3.60
2017-12-31T10:37:44.923Z,4.17
2017-12-31T10:40:12.456Z,4.50
2017-12-31T10:42:39.970Z,2.57
2017-12-31T10:45:07.513Z,4.20
2017-12-31T10:47:35.024Z,5.70
2017-12-31T10:50:03.328Z,2.90
2017-12-31T10:55:31.475Z,7.13
2017-12-31T10:57:59.584Z,5.60
2017-12-31T11:00:35.241Z,5.23
2017-12-31T11:03:03.672Z,3.97
2017-12-31T11:05:35.300Z,2.23
2017-12-31T11:08:03.221Z,4.33
2017-12-31T11:10:30.780Z,3.63
2017-12-31T11:12:59.026Z,3.80
2017-12-31T11:15:26.589Z,2.30
2017-12-31T11:20:28.510Z,2.90
2017-12-31T11:22:56.020Z,2.40
2017-12-31T11:25:23.568Z,2.23
2017-12-31T11:27:51.858Z,4.60
2017-12-31T11:30:19.465Z,2.20
2017-12-31T11:32:47.621Z,3.80
2017-12-31T11:35:15.561Z,4.50
2017-12-31T11:37:43.100Z,2.10
2017-12-31T11:40:10.649Z,2.50
2017-12-31T11:42:38.168Z,3.20
2017-12-31T11:45:05.723Z,4.30
2017-12-31T11:47:35.564Z,2.20
2017-12-31T11:50:03.767Z,2.10
2017-12-31T11:52:32.095Z,4.03
2017-12-31T11:54:59.630Z,1.80
2017-12-31T11:57:27.155Z,3.17
2017-12-31T11:59:56.249Z,2.77
2017-12-31T12:02:24.535Z,3.70
2017-12-31T12:04:53.764Z,3.63
2017-12-31T12:07:22.050Z,2.80
2017-12-31T12:09:49.598Z,2.50
2017-12-31T12:12:18.813Z,3.47
2017-12-31T12:14:47.076Z,5.07
2017-12-31T12:17:16.348Z,2.50
2017-12-31T12:19:44.592Z,2.53
2017-12-31T12:22:12.518Z,2.80
2017-12-31T12:24:40.053Z,3.87
2017-12-31T12:27:09.424Z,2.13
2017-12-31T12:29:36.952Z,4.73
2017-12-31T12:32:04.788Z,2.60
2017-12-31T12:34:32.317Z,8.50
2017-12-31T12:37:00.664Z,3.67
2017-12-31T12:39:28.194Z,3.37
2017-12-31T12:41:55.729Z,1.90
2017-12-31T12:44:23.240Z,3.47
2017-12-31T12:46:53.440Z,1.80
2017-12-31T12:49:21.721Z,3.23
2017-12-31T12:51:49.259Z,2.33
2017-12-31T12:54:17.369Z,2.13
2017-12-31T12:56:45.636Z,2.33
2017-12-31T12:59:13.201Z,2.27
2017-12-31T13:01:41.719Z,1.23
2017-12-31T13:04:09.652Z,2.33
2017-12-31T13:06:37.197Z,1.93
2017-12-31T13:09:05.492Z,2.80
2017-12-31T13:11:33.071Z,2.70
2017-12-31T13:14:01.807Z,1.77
2017-12-31T13:16:29.356Z,1.57
2017-12-31T13:18:56.900Z,2.03
2017-12-31T13:21:25.228Z,2.03
2017-12-31T13:23:52.990Z,2.60
2017-12-31T13:26:20.568Z,3.20
2017-12-31T13:28:50.693Z,3.70
2017-12-31T13:31:18.995Z,1.23
2017-12-31T13:33:48.198Z,1.47
2017-12-31T13:36:18.448Z,1.90
2017-12-31T13:38:45.990Z,1.37
2017-12-31T13:41:13.501Z,2.13
2017-12-31T13:43:41.079Z,3.27
2017-12-31T13:46:08.639Z,1.87
2017-12-31T13:48:36.588Z,3.13
2017-12-31T13:51:04.923Z,2.80
2017-12-31T13:53:32.467Z,2.20
2017-12-31T13:55:59.981Z,1.40
2017-12-31T13:58:28.283Z,2.73
2017-12-31T14:00:56.657Z,1.20
2017-12-31T14:03:24.228Z,2.53
2017-12-31T14:05:52.160Z,2.10
2017-12-31T14:08:20.608Z,2.03
2017-12-31T14:10:48.899Z,3.50
2017-12-31T14:13:16.475Z,2.80
2017-12-31T14:15:44.748Z,3.77
2017-12-31T14:18:13.761Z,1.27
2017-12-31T14:20:42.049Z,6.23
2017-12-31T14:23:10.565Z,1.67
2017-12-31T14:25:38.239Z,1.40
2017-12-31T14:28:05.795Z,4.60
2017-12-31T14:30:33.302Z,4.17
2017-12-31T14:33:00.832Z,3.43
2017-12-31T14:35:28.423Z,3.87
2017-12-31T14:37:56.014Z,2.43
2017-12-31T14:40:23.844Z,3.63
2017-12-31T14:42:52.556Z,3.90
2017-12-31T14:45:20.280Z,5.03
2017-12-31T14:47:48.597Z,1.97
2017-12-31T14:50:16.840Z,2.93
2017-12-31T14:52:44.611Z,4.77
2017-12-31T14:55:13.554Z,3.50
2017-12-31T14:57:41.476Z,3.23
2017-12-31T15:00:09.827Z,3.27
2017-12-31T15:02:38.208Z,3.37
2017-12-31T15:05:05.736Z,4.20
2017-12-31T15:07:33.764Z,3.10
2017-12-31T15:10:01.441Z,3.63
2017-12-31T15:12:28.955Z,3.73
2017-12-31T15:14:56.548Z,2.87
2017-12-31T15:17:24.842Z,4.37
2017-12-31T15:19:52.824Z,4.03
2017-12-31T15:22:20.680Z,3.83
2017-12-31T15:24:48.263Z,5.17
2017-12-31T15:27:15.819Z,2.60
2017-12-31T15:29:43.364Z,6.43
2017-12-31T15:32:13.823Z,2.40
2017-12-31T15:34:41.500Z,2.60
2017-12-31T15:37:09.135Z,4.03
2017-12-31T15:39:37.521Z,2.40
2017-12-31T15:42:05.062Z,3.20
2017-12-31T15:44:34.325Z,1.50
2017-12-31T15:47:02.777Z,4.00
2017-12-31T15:49:30.354Z,3.47
2017-12-31T15:51:58.627Z,2.03
2017-12-31T15:54:27.101Z,9.63
2017-12-31T15:56:55.013Z,4.87
2017-12-31T15:59:22.966Z,5.03
2017-12-31T16:01:50.698Z,2.10
2017-12-31T16:07:02.684Z,3.47
2017-12-31T16:09:30.262Z,5.50
2017-12-31T16:11:57.780Z,3.80
2017-12-31T16:14:26.599Z,3.87
2017-12-31T16:16:54.479Z,4.47
2017-12-31T16:19:21.989Z,3.13
2017-12-31T16:21:49.562Z,3.00
2017-12-31T16:24:17.076Z,3.80
2017-12-31T16:26:44.601Z,4.17
2017-12-31T16:29:13.910Z,3.83
2017-12-31T16:31:41.581Z,5.53
2017-12-31T16:36:45.055Z,9.40
2017-12-31T16:39:14.066Z,5.73
2017-12-31T16:41:42.312Z,7.17
2017-12-31T16:44:09.826Z,5.50
2017-12-31T16:46:37.364Z,5.47
2017-12-31T16:49:05.849Z,6.90
2017-12-31T16:51:34.037Z,6.03
2017-12-31T16:54:01.560Z,6.90
2017-12-31T16:56:29.083Z,6.00
2017-12-31T16:58:57.410Z,15.53
2017-12-31T17:01:25.375Z,16.23
2017-12-31T17:03:53.847Z,14.53
2017-12-31T17:06:21.640Z,19.60
2017-12-31T17:08:49.170Z,12.10
2017-12-31T17:11:16.755Z,10.57
2017-12-31T17:13:45.074Z,9.87
2017-12-31T17:16:12.600Z,8.63
2017-12-31T17:18:40.175Z,7.33
2017-12-31T17:21:08.455Z,6.60
2017-12-31T17:23:35.968Z,7.17
2017-12-31T17:26:03.878Z,8.20
2017-12-31T17:28:31.373Z,9.07
2017-12-31T17:30:58.919Z,8.07
2017-12-31T17:33:26.470Z,8.13
2017-12-31T17:35:54.050Z,11.03
2017-12-31T17:38:21.606Z,11.83
2017-12-31T17:40:49.729Z,13.00
2017-12-31T17:43:18.219Z,9.53
2017-12-31T17:45:45.732Z,14.50
2017-12-31T17:48:14.182Z,12.07
2017-12-31T17:50:41.735Z,19.37
2017-12-31T17:53:09.314Z,11.33
2017-12-31T17:55:36.839Z,13.47
2017-12-31T17:58:04.383Z,14.57
2017-12-31T18:00:31.905Z,23.23
2017-12-31T18:02:59.432Z,41.20
2017-12-31T18:05:26.951Z,30.10
2017-12-31T18:07:55.824Z,35.23
2017-12-31T18:10:24.128Z,37.70
2017-12-31T18:12:52.606Z,27.13
2017-12-31T18:15:20.178Z,17.00
2017-12-31T18:17:47.727Z,25.20
2017-12-31T18:20:15.248Z,31.87
2017-12-31T18:22:43.566Z,35.13
2017-12-31T18:25:11.626Z,35.77
2017-12-31T18:27:40.064Z,24.03
2017-12-31T18:30:08.270Z,26.93
2017-12-31T18:32:37.468Z,34.73
2017-12-31T18:35:06.643Z,25.37
2017-12-31T18:37:35.824Z,25.47
2017-12-31T18:40:05.001Z,28.83
2017-12-31T18:42:34.192Z,22.57
2017-12-31T18:45:04.191Z,16.80
2017-12-31T18:47:34.085Z,19.77
2017-12-31T18:50:04.891Z,12.73
2017-12-31T18:52:34.092Z,16.73
2017-12-31T18:55:04.071Z,14.53
2017-12-31T18:57:33.486Z,11.10
2017-12-31T19:00:02.653Z,10.63
2017-12-31T19:02:31.844Z,18.00
2017-12-31T19:05:01.009Z,18.40
2017-12-31T19:07:31.594Z,17.23
2017-12-31T19:10:00.806Z,17.03
2017-12-31T19:12:29.996Z,19.43
2017-12-31T19:14:59.156Z,19.07
2017-12-31T19:17:28.394Z,22.57
2017-12-31T19:19:57.560Z,37.00
2017-12-31T19:22:26.785Z,42.30
2017-12-31T19:24:56.685Z,43.47
2017-12-31T19:27:26.251Z,41.83
2017-12-31T19:29:55.466Z,39.33
2017-12-31T19:32:24.642Z,33.00
2017-12-31T19:34:53.823Z,24.00
2017-12-31T19:37:23.036Z,20.70
2017-12-31T19:39:53.054Z,23.70
2017-12-31T19:42:22.303Z,33.33
2017-12-31T19:44:51.479Z,24.63
2017-12-31T19:47:21.670Z,34.17
2017-12-31T19:49:50.906Z,41.30
2017-12-31T19:52:20.080Z,45.23
2017-12-31T19:54:49.304Z,29.33
2017-12-31T19:57:18.809Z,26.10
2017-12-31T19:59:48.000Z,20.07
2017-12-31T20:02:17.856Z,34.00
2017-12-31T20:04:47.096Z,27.63
2017-12-31T20:07:16.264Z,29.50
2017-12-31T20:09:46.571Z,26.80
2017-12-31T20:12:15.777Z,32.60
2017-12-31T20:14:46.664Z,36.07
2017-12-31T20:17:15.832Z,50.97
2017-12-31T20:19:45.024Z,49.83
2017-12-31T20:22:14.202Z,44.50
2017-12-31T20:24:43.431Z,52.23
2017-12-31T20:27:12.654Z,48.93
2017-12-31T20:29:41.894Z,63.03
2017-12-31T20:32:11.114Z,67.43
2017-12-31T20:34:40.304Z,49.53
2017-12-31T20:37:10.374Z,49.50
2017-12-31T20:39:37.912Z,48.70
2017-12-31T20:42:05.836Z,43.80
2017-12-31T20:44:34.307Z,50.27
2017-12-31T20:47:01.876Z,45.00
2017-12-31T20:49:29.791Z,59.57
2017-12-31T20:51:58.925Z,48.97
2017-12-31T20:54:26.945Z,66.90
2017-12-31T20:56:55.389Z,53.37
2017-12-31T20:59:22.975Z,55.07
2017-12-31T21:01:50.586Z,86.33
2017-12-31T21:04:18.128Z,96.37
2017-12-31T21:06:47.044Z,69.70
2017-12-31T21:09:14.631Z,61.17
2017-12-31T21:11:43.113Z,80.03
2017-12-31T21:14:11.105Z,62.10
2017-12-31T21:16:38.944Z,58.90
2017-12-31T21:19:06.456Z,55.40
2017-12-31T21:21:35.680Z,84.57
2017-12-31T21:24:03.244Z,110.63
2017-12-31T21:26:30.823Z,72.90
2017-12-31T21:28:58.380Z,83.07
2017-12-31T21:31:25.926Z,63.50
2017-12-31T21:33:53.495Z,70.37
2017-12-31T21:36:21.077Z,68.93
2017-12-31T21:38:48.601Z,72.40
2017-12-31T21:41:16.968Z,78.67
2017-12-31T21:43:46.105Z,82.83
2017-12-31T21:46:13.730Z,80.53
2017-12-31T21:48:42.079Z,100.80
2017-12-31T21:51:09.667Z,76.07
2017-12-31T21:53:38.979Z,73.97
2017-12-31T21:56:06.582Z,75.97
2017-12-31T21:58:34.397Z,79.40
2017-12-31T22:01:08.552Z,71.10
2017-12-31T22:03:36.526Z,78.53
2017-12-31T22:06:04.918Z,78.53
2017-12-31T22:08:32.490Z,63.10
2017-12-31T22:11:00.064Z,51.00
2017-12-31T22:13:27.609Z,62.97
2017-12-31T22:15:56.197Z,56.57
2017-12-31T22:18:24.348Z,55.83
2017-12-31T22:20:51.939Z,86.37
2017-12-31T22:23:19.501Z,76.77
2017-12-31T22:25:47.857Z,69.93
2017-12-31T22:28:15.681Z,80.10
2017-12-31T22:30:43.258Z,70.27
2017-12-31T22:33:11.607Z,70.17
2017-12-31T22:35:39.192Z,122.23
2017-12-31T22:38:06.763Z,108.67
2017-12-31T22:40:34.359Z,114.20
2017-12-31T22:43:01.932Z,98.90
2017-12-31T22:45:29.585Z,85.47
2017-12-31T22:47:57.587Z,95.83
2017-12-31T22:50:25.164Z,91.13
2017-12-31T22:52:53.134Z,94.63
2017-12-31T22:55:20.669Z,91.17
2017-12-31T22:57:48.241Z,76.57
2017-12-31T23:00:16.199Z,289.10
2017-12-31T23:02:43.758Z,158.20
2017-12-31T23:05:11.715Z,111.83
2017-12-31T23:07:39.341Z,174.27
2017-12-31T23:10:07.479Z,398.70
2017-12-31T23:12:35.968Z,352.63
2017-12-31T23:15:03.884Z,502.70
2017-12-31T23:17:32.089Z,530.57
2017-12-31T23:19:59.613Z,479.47
2017-12-31T23:22:27.158Z,599.43
2017-12-31T23:24:54.723Z,670.10
2017-12-31T23:27:22.307Z,644.97
2017-12-31T23:29:49.838Z,541.80
2017-12-31T23:32:17.380Z,256.63
2017-12-31T23:34:44.943Z,342.20
2017-12-31T23:37:13.300Z,525.60
2017-12-31T23:39:41.591Z,185.10
2017-12-31T23:42:09.139Z,433.93
2017-12-31T23:44:37.469Z,349.20
2017-12-31T23:47:06.068Z,249.03
2017-12-31T23:49:33.607Z,149.97
2017-12-31T23:52:01.156Z,222.37
2017-12-31T23:54:28.682Z,150.57
2017-12-31T23:56:57.011Z,481.73
2017-12-31T23:59:24.590Z,345.77
